sensor_id;sensor_type;location;lat;lon;timestamp;temperature;humidity
19610;DHT22;9952;47.122;-1.638;2023-03-21T00:01:05;10.50;99.90
19610;DHT22;9952;47.122;-1.638;2023-03-21T00:05:46;10.50;99.90
19610;DHT22;9952;47.122;-1.638;2023-03-21T00:10:31;10.50;99.90
19610;DHT22;9952;47.122;-1.638;2023-03-21T00:15:11;10.40;99.90
19610;DHT22;9952;47.122;-1.638;2023-03-21T00:19:53;10.40;99.90
19610;DHT22;9952;47.122;-1.638;2023-03-21T00:24:34;10.40;99.90
19610;DHT22;9952;47.122;-1.638;2023-03-21T00:29:16;10.30;99.90
19610;DHT22;9952;47.122;-1.638;2023-03-21T00:33:56;10.30;99.90
19610;DHT22;9952;47.122;-1.638;2023-03-21T00:38:37;10.20;99.90
19610;DHT22;9952;47.122;-1.638;2023-03-21T00:43:18;10.20;99.90
19610;DHT22;9952;47.122;-1.638;2023-03-21T00:48:04;10.20;99.90
19610;DHT22;9952;47.122;-1.638;2023-03-21T00:52:45;10.10;99.90
19610;DHT22;9952;47.122;-1.638;2023-03-21T00:57:26;10.10;99.90
19610;DHT22;9952;47.122;-1.638;2023-03-21T01:02:06;10.10;99.90
19610;DHT22;9952;47.122;-1.638;2023-03-21T01:06:47;10.10;99.90
19610;DHT22;9952;47.122;-1.638;2023-03-21T01:11:28;10.10;99.90
19610;DHT22;9952;47.122;-1.638;2023-03-21T01:16:09;10.20;99.90
19610;DHT22;9952;47.122;-1.638;2023-03-21T01:20:50;10.20;99.90
19610;DHT22;9952;47.122;-1.638;2023-03-21T01:25:31;10.20;99.90
19610;DHT22;9952;47.122;-1.638;2023-03-21T01:30:12;10.30;99.90
19610;DHT22;9952;47.122;-1.638;2023-03-21T01:34:52;10.30;99.90
19610;DHT22;9952;47.122;-1.638;2023-03-21T01:39:33;10.40;99.90
19610;DHT22;9952;47.122;-1.638;2023-03-21T01:44:17;10.40;99.90
19610;DHT22;9952;47.122;-1.638;2023-03-21T01:49:15;10.50;99.90
19610;DHT22;9952;47.122;-1.638;2023-03-21T01:53:57;10.50;99.90
19610;DHT22;9952;47.122;-1.638;2023-03-21T01:58:39;10.50;99.90
19610;DHT22;9952;47.122;-1.638;2023-03-21T02:03:22;10.50;99.90
19610;DHT22;9952;47.122;-1.638;2023-03-21T02:08:03;10.50;99.90
19610;DHT22;9952;47.122;-1.638;2023-03-21T02:12:44;10.50;99.90
19610;DHT22;9952;47.122;-1.638;2023-03-21T02:27:28;10.40;99.90
19610;DHT22;9952;47.122;-1.638;2023-03-21T02:41:46;10.40;99.90
19610;DHT22;9952;47.122;-1.638;2023-03-21T02:46:31;10.40;99.90
19610;DHT22;9952;47.122;-1.638;2023-03-21T02:51:18;10.40;99.90
19610;DHT22;9952;47.122;-1.638;2023-03-21T02:56:01;10.40;99.90
19610;DHT22;9952;47.122;-1.638;2023-03-21T03:00:43;10.40;99.90
19610;DHT22;9952;47.122;-1.638;2023-03-21T03:05:27;10.40;99.90
19610;DHT22;9952;47.122;-1.638;2023-03-21T03:10:37;10.40;99.90
19610;DHT22;9952;47.122;-1.638;2023-03-21T03:15:23;10.40;99.90
19610;DHT22;9952;47.122;-1.638;2023-03-21T03:25:08;10.40;99.90
19610;DHT22;9952;47.122;-1.638;2023-03-21T03:29:52;10.40;99.90
19610;DHT22;9952;47.122;-1.638;2023-03-21T03:34:36;10.40;99.90
19610;DHT22;9952;47.122;-1.638;2023-03-21T03:39:19;10.30;99.90
19610;DHT22;9952;47.122;-1.638;2023-03-21T03:44:00;10.30;99.90
19610;DHT22;9952;47.122;-1.638;2023-03-21T03:48:50;10.30;99.90
19610;DHT22;9952;47.122;-1.638;2023-03-21T03:53:50;10.20;99.90
19610;DHT22;9952;47.122;-1.638;2023-03-21T03:58:35;10.20;99.90
19610;DHT22;9952;47.122;-1.638;2023-03-21T04:03:18;10.20;99.90
19610;DHT22;9952;47.122;-1.638;2023-03-21T04:07:59;10.20;99.90
19610;DHT22;9952;47.122;-1.638;2023-03-21T04:12:40;10.20;99.90
19610;DHT22;9952;47.122;-1.638;2023-03-21T04:17:21;10.30;99.90
19610;DHT22;9952;47.122;-1.638;2023-03-21T04:22:01;10.30;99.90
19610;DHT22;9952;47.122;-1.638;2023-03-21T04:26:42;10.30;99.90
19610;DHT22;9952;47.122;-1.638;2023-03-21T04:31:23;10.40;99.90
19610;DHT22;9952;47.122;-1.638;2023-03-21T04:36:07;10.40;99.90
19610;DHT22;9952;47.122;-1.638;2023-03-21T04:40:48;10.40;99.90
19610;DHT22;9952;47.122;-1.638;2023-03-21T04:45:29;10.40;99.90
19610;DHT22;9952;47.122;-1.638;2023-03-21T04:50:10;10.40;99.90
19610;DHT22;9952;47.122;-1.638;2023-03-21T04:54:52;10.40;99.90
19610;DHT22;9952;47.122;-1.638;2023-03-21T04:59:33;10.40;99.90
19610;DHT22;9952;47.122;-1.638;2023-03-21T05:04:14;10.50;99.90
19610;DHT22;9952;47.122;-1.638;2023-03-21T05:08:56;10.50;99.90
19610;DHT22;9952;47.122;-1.638;2023-03-21T05:13:41;10.50;99.90
19610;DHT22;9952;47.122;-1.638;2023-03-21T05:18:21;10.50;99.90
19610;DHT22;9952;47.122;-1.638;2023-03-21T05:23:05;10.60;99.90
19610;DHT22;9952;47.122;-1.638;2023-03-21T05:27:50;10.60;99.90
19610;DHT22;9952;47.122;-1.638;2023-03-21T05:32:33;10.70;99.90
19610;DHT22;9952;47.122;-1.638;2023-03-21T05:37:14;10.80;99.90
19610;DHT22;9952;47.122;-1.638;2023-03-21T05:41:55;10.80;99.90
19610;DHT22;9952;47.122;-1.638;2023-03-21T05:46:36;10.90;99.90
19610;DHT22;9952;47.122;-1.638;2023-03-21T05:51:17;10.90;99.90
19610;DHT22;9952;47.122;-1.638;2023-03-21T05:55:58;11.00;99.90
19610;DHT22;9952;47.122;-1.638;2023-03-21T06:00:39;11.00;99.90
19610;DHT22;9952;47.122;-1.638;2023-03-21T06:05:19;11.00;99.90
19610;DHT22;9952;47.122;-1.638;2023-03-21T06:10:00;11.10;99.90
19610;DHT22;9952;47.122;-1.638;2023-03-21T06:14:41;11.10;99.90
19610;DHT22;9952;47.122;-1.638;2023-03-21T06:19:22;11.20;99.90
19610;DHT22;9952;47.122;-1.638;2023-03-21T06:24:03;11.20;99.90
19610;DHT22;9952;47.122;-1.638;2023-03-21T06:28:43;11.20;99.90
19610;DHT22;9952;47.122;-1.638;2023-03-21T06:33:24;11.30;99.90
19610;DHT22;9952;47.122;-1.638;2023-03-21T06:38:05;11.30;99.90
19610;DHT22;9952;47.122;-1.638;2023-03-21T06:42:47;11.30;99.90
19610;DHT22;9952;47.122;-1.638;2023-03-21T06:47:28;11.40;99.90
19610;DHT22;9952;47.122;-1.638;2023-03-21T06:52:10;11.40;99.90
19610;DHT22;9952;47.122;-1.638;2023-03-21T06:56:50;11.50;99.90
19610;DHT22;9952;47.122;-1.638;2023-03-21T07:01:32;11.50;99.90
19610;DHT22;9952;47.122;-1.638;2023-03-21T07:06:12;11.60;99.90
19610;DHT22;9952;47.122;-1.638;2023-03-21T07:10:55;11.60;99.90
19610;DHT22;9952;47.122;-1.638;2023-03-21T07:15:37;11.70;99.90
19610;DHT22;9952;47.122;-1.638;2023-03-21T07:20:18;11.70;99.90
19610;DHT22;9952;47.122;-1.638;2023-03-21T07:24:59;11.80;99.90
19610;DHT22;9952;47.122;-1.638;2023-03-21T07:29:39;11.80;99.90
19610;DHT22;9952;47.122;-1.638;2023-03-21T07:34:21;11.80;99.90
19610;DHT22;9952;47.122;-1.638;2023-03-21T07:39:02;11.90;99.90
19610;DHT22;9952;47.122;-1.638;2023-03-21T07:43:43;12.00;99.90
19610;DHT22;9952;47.122;-1.638;2023-03-21T07:48:24;12.00;99.90
19610;DHT22;9952;47.122;-1.638;2023-03-21T07:53:05;12.10;99.90
19610;DHT22;9952;47.122;-1.638;2023-03-21T07:57:49;12.20;99.90
19610;DHT22;9952;47.122;-1.638;2023-03-21T08:02:31;12.20;99.90
19610;DHT22;9952;47.122;-1.638;2023-03-21T08:07:12;12.20;99.90
19610;DHT22;9952;47.122;-1.638;2023-03-21T08:11:52;12.30;99.90
19610;DHT22;9952;47.122;-1.638;2023-03-21T08:16:34;12.30;99.90
19610;DHT22;9952;47.122;-1.638;2023-03-21T08:21:15;12.40;99.90
19610;DHT22;9952;47.122;-1.638;2023-03-21T08:25:56;12.40;99.90
19610;DHT22;9952;47.122;-1.638;2023-03-21T08:30:37;12.50;99.90
19610;DHT22;9952;47.122;-1.638;2023-03-21T08:35:18;12.50;99.90
19610;DHT22;9952;47.122;-1.638;2023-03-21T08:39:59;12.50;99.90
19610;DHT22;9952;47.122;-1.638;2023-03-21T08:44:40;12.60;99.90
19610;DHT22;9952;47.122;-1.638;2023-03-21T08:49:21;13.10;99.90
19610;DHT22;9952;47.122;-1.638;2023-03-21T08:54:02;13.90;99.90
19610;DHT22;9952;47.122;-1.638;2023-03-21T08:58:43;14.50;99.90
19610;DHT22;9952;47.122;-1.638;2023-03-21T09:03:24;15.00;99.90
19610;DHT22;9952;47.122;-1.638;2023-03-21T09:08:06;14.90;99.90
19610;DHT22;9952;47.122;-1.638;2023-03-21T09:12:48;14.50;99.90
19610;DHT22;9952;47.122;-1.638;2023-03-21T09:17:29;14.30;99.90
19610;DHT22;9952;47.122;-1.638;2023-03-21T09:22:12;14.20;99.90
19610;DHT22;9952;47.122;-1.638;2023-03-21T09:26:57;14.00;99.90
19610;DHT22;9952;47.122;-1.638;2023-03-21T09:31:38;14.00;99.90
19610;DHT22;9952;47.122;-1.638;2023-03-21T09:36:19;14.80;99.90
19610;DHT22;9952;47.122;-1.638;2023-03-21T09:41:16;15.20;99.90
19610;DHT22;9952;47.122;-1.638;2023-03-21T09:50:49;15.50;99.90
19610;DHT22;9952;47.122;-1.638;2023-03-21T09:55:32;16.00;99.90
19610;DHT22;9952;47.122;-1.638;2023-03-21T10:00:23;16.50;99.90
19610;DHT22;9952;47.122;-1.638;2023-03-21T10:05:19;16.70;99.90
19610;DHT22;9952;47.122;-1.638;2023-03-21T10:10:02;16.90;99.90
19610;DHT22;9952;47.122;-1.638;2023-03-21T10:14:48;17.40;99.90
19610;DHT22;9952;47.122;-1.638;2023-03-21T10:19:29;17.50;99.90
19610;DHT22;9952;47.122;-1.638;2023-03-21T10:24:12;17.30;99.90
19610;DHT22;9952;47.122;-1.638;2023-03-21T10:28:58;17.70;99.90
19610;DHT22;9952;47.122;-1.638;2023-03-21T10:33:42;18.30;99.90
19610;DHT22;9952;47.122;-1.638;2023-03-21T10:38:25;18.60;99.90
19610;DHT22;9952;47.122;-1.638;2023-03-21T10:48:08;18.40;99.90
19610;DHT22;9952;47.122;-1.638;2023-03-21T10:52:50;17.90;99.90
19610;DHT22;9952;47.122;-1.638;2023-03-21T10:57:32;17.40;99.90
19610;DHT22;9952;47.122;-1.638;2023-03-21T11:02:30;17.10;99.90
19610;DHT22;9952;47.122;-1.638;2023-03-21T11:07:14;17.10;99.90
19610;DHT22;9952;47.122;-1.638;2023-03-21T11:12:04;17.50;99.90
19610;DHT22;9952;47.122;-1.638;2023-03-21T11:16:49;18.00;99.90
19610;DHT22;9952;47.122;-1.638;2023-03-21T11:21:35;18.50;99.90
19610;DHT22;9952;47.122;-1.638;2023-03-21T11:26:25;18.60;99.90
19610;DHT22;9952;47.122;-1.638;2023-03-21T11:31:07;18.40;99.90
19610;DHT22;9952;47.122;-1.638;2023-03-21T11:40:52;19.10;99.90
19610;DHT22;9952;47.122;-1.638;2023-03-21T11:45:34;19.20;99.90
19610;DHT22;9952;47.122;-1.638;2023-03-21T11:51:09;19.00;99.90
19610;DHT22;9952;47.122;-1.638;2023-03-21T12:06:21;18.80;99.90
19610;DHT22;9952;47.122;-1.638;2023-03-21T12:16:17;18.40;99.90
19610;DHT22;9952;47.122;-1.638;2023-03-21T12:21:09;18.20;99.90
19610;DHT22;9952;47.122;-1.638;2023-03-21T12:31:12;18.70;99.90
19610;DHT22;9952;47.122;-1.638;2023-03-21T12:36:15;19.00;99.90
19610;DHT22;9952;47.122;-1.638;2023-03-21T12:46:05;18.70;99.90
19610;DHT22;9952;47.122;-1.638;2023-03-21T12:50:52;18.70;99.90
19610;DHT22;9952;47.122;-1.638;2023-03-21T12:55:34;18.70;99.90
19610;DHT22;9952;47.122;-1.638;2023-03-21T13:00:36;18.30;99.90
19610;DHT22;9952;47.122;-1.638;2023-03-21T13:10:14;18.40;99.90
19610;DHT22;9952;47.122;-1.638;2023-03-21T13:15:10;17.90;99.90
19610;DHT22;9952;47.122;-1.638;2023-03-21T13:20:11;17.60;99.90
19610;DHT22;9952;47.122;-1.638;2023-03-21T13:25:05;17.70;99.90
19610;DHT22;9952;47.122;-1.638;2023-03-21T13:29:50;18.20;99.90
19610;DHT22;9952;47.122;-1.638;2023-03-21T13:34:31;18.20;99.90
19610;DHT22;9952;47.122;-1.638;2023-03-21T13:39:23;18.40;99.90
19610;DHT22;9952;47.122;-1.638;2023-03-21T13:44:18;18.50;99.90
19610;DHT22;9952;47.122;-1.638;2023-03-21T13:49:14;18.60;99.90
19610;DHT22;9952;47.122;-1.638;2023-03-21T13:58:51;18.60;99.90
19610;DHT22;9952;47.122;-1.638;2023-03-21T14:03:34;18.50;99.90
19610;DHT22;9952;47.122;-1.638;2023-03-21T14:08:17;18.50;99.90
19610;DHT22;9952;47.122;-1.638;2023-03-21T14:13:02;18.60;99.90
19610;DHT22;9952;47.122;-1.638;2023-03-21T14:17:54;18.70;99.90
19610;DHT22;9952;47.122;-1.638;2023-03-21T14:22:35;18.60;99.90
19610;DHT22;9952;47.122;-1.638;2023-03-21T14:27:17;18.10;99.90
19610;DHT22;9952;47.122;-1.638;2023-03-21T14:31:59;18.20;99.90
19610;DHT22;9952;47.122;-1.638;2023-03-21T14:36:41;18.50;99.90
19610;DHT22;9952;47.122;-1.638;2023-03-21T14:41:25;18.30;99.90
19610;DHT22;9952;47.122;-1.638;2023-03-21T14:46:06;18.00;99.90
19610;DHT22;9952;47.122;-1.638;2023-03-21T14:50:50;17.90;99.90
19610;DHT22;9952;47.122;-1.638;2023-03-21T14:55:33;17.90;99.90
19610;DHT22;9952;47.122;-1.638;2023-03-21T15:00:28;17.70;99.90
19610;DHT22;9952;47.122;-1.638;2023-03-21T15:09:58;17.80;99.90
19610;DHT22;9952;47.122;-1.638;2023-03-21T15:14:40;17.90;99.90
19610;DHT22;9952;47.122;-1.638;2023-03-21T15:19:27;18.00;99.90
19610;DHT22;9952;47.122;-1.638;2023-03-21T15:24:31;18.00;99.90
19610;DHT22;9952;47.122;-1.638;2023-03-21T15:29:14;17.90;99.90
19610;DHT22;9952;47.122;-1.638;2023-03-21T15:33:55;17.80;99.90
19610;DHT22;9952;47.122;-1.638;2023-03-21T15:38:41;17.70;99.90
19610;DHT22;9952;47.122;-1.638;2023-03-21T15:43:24;17.30;99.90
19610;DHT22;9952;47.122;-1.638;2023-03-21T15:48:11;17.00;99.90
19610;DHT22;9952;47.122;-1.638;2023-03-21T15:52:53;16.90;99.90
19610;DHT22;9952;47.122;-1.638;2023-03-21T15:57:35;16.60;99.90
19610;DHT22;9952;47.122;-1.638;2023-03-21T16:02:21;16.60;99.90
19610;DHT22;9952;47.122;-1.638;2023-03-21T16:07:11;16.50;99.90
19610;DHT22;9952;47.122;-1.638;2023-03-21T16:11:56;16.30;99.90
19610;DHT22;9952;47.122;-1.638;2023-03-21T16:16:38;16.40;99.90
19610;DHT22;9952;47.122;-1.638;2023-03-21T16:21:21;16.10;99.90
19610;DHT22;9952;47.122;-1.638;2023-03-21T16:26:03;16.00;99.90
19610;DHT22;9952;47.122;-1.638;2023-03-21T16:30:44;15.90;99.90
19610;DHT22;9952;47.122;-1.638;2023-03-21T16:35:25;16.00;99.90
19610;DHT22;9952;47.122;-1.638;2023-03-21T16:40:16;15.80;99.90
19610;DHT22;9952;47.122;-1.638;2023-03-21T16:44:59;15.80;99.90
19610;DHT22;9952;47.122;-1.638;2023-03-21T16:49:39;15.60;99.90
19610;DHT22;9952;47.122;-1.638;2023-03-21T16:54:21;15.50;99.90
19610;DHT22;9952;47.122;-1.638;2023-03-21T16:59:03;15.40;99.90
19610;DHT22;9952;47.122;-1.638;2023-03-21T17:03:48;15.20;99.90
19610;DHT22;9952;47.122;-1.638;2023-03-21T17:08:28;15.10;99.90
19610;DHT22;9952;47.122;-1.638;2023-03-21T17:13:10;15.00;99.90
19610;DHT22;9952;47.122;-1.638;2023-03-21T17:17:50;14.90;99.90
19610;DHT22;9952;47.122;-1.638;2023-03-21T17:22:34;14.80;99.90
19610;DHT22;9952;47.122;-1.638;2023-03-21T17:27:15;14.80;99.90
19610;DHT22;9952;47.122;-1.638;2023-03-21T17:31:57;14.70;99.90
19610;DHT22;9952;47.122;-1.638;2023-03-21T17:36:40;14.60;99.90
19610;DHT22;9952;47.122;-1.638;2023-03-21T17:41:21;14.50;99.90
19610;DHT22;9952;47.122;-1.638;2023-03-21T17:46:02;14.40;99.90
19610;DHT22;9952;47.122;-1.638;2023-03-21T17:50:43;14.30;99.90
19610;DHT22;9952;47.122;-1.638;2023-03-21T17:55:24;14.20;99.90
19610;DHT22;9952;47.122;-1.638;2023-03-21T18:00:07;14.10;99.90
19610;DHT22;9952;47.122;-1.638;2023-03-21T18:04:51;14.00;99.90
19610;DHT22;9952;47.122;-1.638;2023-03-21T18:09:32;13.90;99.90
19610;DHT22;9952;47.122;-1.638;2023-03-21T18:14:13;13.80;99.90
19610;DHT22;9952;47.122;-1.638;2023-03-21T18:18:54;13.70;99.90
19610;DHT22;9952;47.122;-1.638;2023-03-21T18:23:37;13.60;99.90
19610;DHT22;9952;47.122;-1.638;2023-03-21T18:28:19;13.50;99.90
19610;DHT22;9952;47.122;-1.638;2023-03-21T18:33:00;13.50;99.90
19610;DHT22;9952;47.122;-1.638;2023-03-21T18:37:42;13.40;99.90
19610;DHT22;9952;47.122;-1.638;2023-03-21T18:42:24;13.30;99.90
19610;DHT22;9952;47.122;-1.638;2023-03-21T18:47:06;13.30;99.90
19610;DHT22;9952;47.122;-1.638;2023-03-21T18:51:47;13.20;99.90
19610;DHT22;9952;47.122;-1.638;2023-03-21T18:56:29;13.20;99.90
19610;DHT22;9952;47.122;-1.638;2023-03-21T19:01:10;13.10;99.90
19610;DHT22;9952;47.122;-1.638;2023-03-21T19:05:51;13.10;99.90
19610;DHT22;9952;47.122;-1.638;2023-03-21T19:10:36;13.10;99.90
19610;DHT22;9952;47.122;-1.638;2023-03-21T19:15:19;13.00;99.90
19610;DHT22;9952;47.122;-1.638;2023-03-21T19:20:01;12.90;99.90
19610;DHT22;9952;47.122;-1.638;2023-03-21T19:24:41;12.80;99.90
19610;DHT22;9952;47.122;-1.638;2023-03-21T19:29:22;12.80;99.90
19610;DHT22;9952;47.122;-1.638;2023-03-21T19:34:03;12.90;99.90
19610;DHT22;9952;47.122;-1.638;2023-03-21T19:38:44;12.80;99.90
19610;DHT22;9952;47.122;-1.638;2023-03-21T19:43:25;12.80;99.90
19610;DHT22;9952;47.122;-1.638;2023-03-21T19:48:05;12.70;99.90
19610;DHT22;9952;47.122;-1.638;2023-03-21T19:52:46;12.70;99.90
19610;DHT22;9952;47.122;-1.638;2023-03-21T19:57:27;12.60;99.90
19610;DHT22;9952;47.122;-1.638;2023-03-21T20:02:10;12.60;99.90
19610;DHT22;9952;47.122;-1.638;2023-03-21T20:06:52;12.50;99.90
19610;DHT22;9952;47.122;-1.638;2023-03-21T20:11:36;12.50;99.90
19610;DHT22;9952;47.122;-1.638;2023-03-21T20:16:17;12.40;99.90
19610;DHT22;9952;47.122;-1.638;2023-03-21T20:20:58;12.40;99.90
19610;DHT22;9952;47.122;-1.638;2023-03-21T20:25:40;12.40;99.90
19610;DHT22;9952;47.122;-1.638;2023-03-21T20:30:21;12.40;99.90
19610;DHT22;9952;47.122;-1.638;2023-03-21T20:35:03;12.30;99.90
19610;DHT22;9952;47.122;-1.638;2023-03-21T20:39:46;12.30;99.90
19610;DHT22;9952;47.122;-1.638;2023-03-21T20:44:27;12.10;99.90
19610;DHT22;9952;47.122;-1.638;2023-03-21T20:49:08;12.10;99.90
19610;DHT22;9952;47.122;-1.638;2023-03-21T20:53:49;12.00;99.90
19610;DHT22;9952;47.122;-1.638;2023-03-21T20:58:31;12.00;99.90
19610;DHT22;9952;47.122;-1.638;2023-03-21T21:03:12;12.00;99.90
19610;DHT22;9952;47.122;-1.638;2023-03-21T21:07:55;11.90;99.90
19610;DHT22;9952;47.122;-1.638;2023-03-21T21:12:37;11.90;99.90
19610;DHT22;9952;47.122;-1.638;2023-03-21T21:17:18;11.80;99.90
19610;DHT22;9952;47.122;-1.638;2023-03-21T21:22:01;11.80;99.90
19610;DHT22;9952;47.122;-1.638;2023-03-21T21:26:41;11.80;99.90
19610;DHT22;9952;47.122;-1.638;2023-03-21T21:31:25;11.80;99.90
19610;DHT22;9952;47.122;-1.638;2023-03-21T21:36:09;11.80;99.90
19610;DHT22;9952;47.122;-1.638;2023-03-21T21:40:51;11.80;99.90
19610;DHT22;9952;47.122;-1.638;2023-03-21T21:45:32;11.70;99.90
19610;DHT22;9952;47.122;-1.638;2023-03-21T21:50:13;11.70;99.90
19610;DHT22;9952;47.122;-1.638;2023-03-21T21:54:54;11.60;99.90
19610;DHT22;9952;47.122;-1.638;2023-03-21T21:59:35;11.60;99.90
19610;DHT22;9952;47.122;-1.638;2023-03-21T22:04:15;11.60;99.90
19610;DHT22;9952;47.122;-1.638;2023-03-21T22:08:57;11.50;99.90
19610;DHT22;9952;47.122;-1.638;2023-03-21T22:13:38;11.50;99.90
19610;DHT22;9952;47.122;-1.638;2023-03-21T22:18:19;11.50;99.90
19610;DHT22;9952;47.122;-1.638;2023-03-21T22:23:00;11.50;99.90
19610;DHT22;9952;47.122;-1.638;2023-03-21T22:27:41;11.50;99.90
19610;DHT22;9952;47.122;-1.638;2023-03-21T22:32:22;11.50;99.90
19610;DHT22;9952;47.122;-1.638;2023-03-21T22:37:03;11.50;99.90
19610;DHT22;9952;47.122;-1.638;2023-03-21T22:41:44;11.40;99.90
19610;DHT22;9952;47.122;-1.638;2023-03-21T22:46:25;11.40;99.90
19610;DHT22;9952;47.122;-1.638;2023-03-21T22:51:07;11.40;99.90
19610;DHT22;9952;47.122;-1.638;2023-03-21T22:55:48;11.30;99.90
19610;DHT22;9952;47.122;-1.638;2023-03-21T23:00:29;11.30;99.90
19610;DHT22;9952;47.122;-1.638;2023-03-21T23:05:10;11.30;99.90
19610;DHT22;9952;47.122;-1.638;2023-03-21T23:09:52;11.30;99.90
19610;DHT22;9952;47.122;-1.638;2023-03-21T23:14:32;11.20;99.90
19610;DHT22;9952;47.122;-1.638;2023-03-21T23:19:13;11.20;99.90
19610;DHT22;9952;47.122;-1.638;2023-03-21T23:23:55;11.30;99.90
19610;DHT22;9952;47.122;-1.638;2023-03-21T23:28:37;11.30;99.90
19610;DHT22;9952;47.122;-1.638;2023-03-21T23:33:18;11.30;99.90
19610;DHT22;9952;47.122;-1.638;2023-03-21T23:37:58;11.40;99.90
19610;DHT22;9952;47.122;-1.638;2023-03-21T23:42:39;11.40;99.90
19610;DHT22;9952;47.122;-1.638;2023-03-21T23:47:20;11.50;99.90
19610;DHT22;9952;47.122;-1.638;2023-03-21T23:52:01;11.50;99.90
19610;DHT22;9952;47.122;-1.638;2023-03-21T23:56:42;11.50;99.90
